Time;durP1;ratioP1;P1;durP2;ratioP2;P2;SDS_P1;SDS_P2;PMS_P1;PMS_P2;Temp;Humidity;BMP_temperature;BMP_pressure;BME280_temperature;BME280_humidity;BME280_pressure;Samples;Min_cycle;Max_cycle;Signal;HPM_P1;HPM_P2
2021/11/17 02:25:44;;;;;;;5.50;4.07;;;21.00;53.30;;;;;;6193163;28;20031;-71
2021/11/17 02:29:11;;;;;;;5.35;3.90;;;21.00;53.30;;;;;;6193382;28;20026;-71
2021/11/17 02:32:21;;;;;;;5.20;3.67;;;21.00;53.30;;;;;;6181943;28;20035;-71
2021/11/17 02:35:33;;;;;;;4.07;3.42;;;21.00;53.30;;;;;;6192020;28;20093;-71
2021/11/17 02:38:51;;;;;;;4.40;3.30;;;21.00;53.30;;;;;;6191815;28;20028;-71
2021/11/17 02:42:14;;;;;;;5.22;3.72;;;21.00;53.30;;;;;;6197422;28;20419;-71
2021/11/17 02:45:46;;;;;;;5.03;3.85;;;21.00;53.20;;;;;;6216412;28;20091;-71
2021/11/17 02:48:58;;;;;;;4.97;3.72;;;21.00;53.20;;;;;;6216177;28;20052;-71
2021/11/17 02:52:17;;;;;;;5.30;3.75;;;21.00;53.20;;;;;;6212616;28;20081;-71
2021/11/17 02:55:34;;;;;;;5.80;3.80;;;21.00;54.00;;;;;;6185877;28;20159;-71
2021/11/17 02:58:59;;;;;;;4.63;3.58;;;21.00;53.30;;;;;;6167563;28;20400;-71
2021/11/17 03:02:06;;;;;;;5.40;3.93;;;21.00;53.20;;;;;;6154441;28;20085;-71
2021/11/17 03:05:12;;;;;;;5.03;3.63;;;21.00;53.20;;;;;;6192973;28;20027;-68
2021/11/17 03:08:45;;;;;;;5.20;3.50;;;21.00;53.20;;;;;;6192313;28;20378;-69
2021/11/17 03:12:07;;;;;;;4.40;3.47;;;21.00;53.20;;;;;;6210345;28;20034;-71
2021/11/17 03:15:26;;;;;;;4.50;3.38;;;21.00;53.20;;;;;;6196601;28;20455;-70
2021/11/17 03:18:54;;;;;;;5.35;3.63;;;21.00;53.20;;;;;;6196526;28;20078;-72
2021/11/17 03:22:31;;;;;;;5.15;4.00;;;21.00;53.20;;;;;;6195316;28;20030;-69
2021/11/17 03:25:39;;;;;;;4.57;3.50;;;21.00;53.20;;;;;;6196368;28;20050;-70
2021/11/17 03:28:58;;;;;;;5.00;3.47;;;21.00;53.20;;;;;;6217259;28;20506;-69
2021/11/17 03:32:15;;;;;;;3.53;3.00;;;21.00;53.30;;;;;;6221416;28;20487;-70
2021/11/17 03:35:23;;;;;;;4.00;3.40;;;21.00;53.20;;;;;;6216015;28;20030;-69
2021/11/17 03:38:35;;;;;;;4.65;3.47;;;21.00;53.20;;;;;;6213081;28;20556;-69
2021/11/17 03:41:39;;;;;;;3.78;3.10;;;21.00;53.20;;;;;;6216690;28;20542;-69
2021/11/17 03:44:39;;;;;;;4.47;3.40;;;21.00;53.20;;;;;;6194906;28;20155;-69
2021/11/17 03:47:52;;;;;;;4.47;3.40;;;21.00;53.30;;;;;;6206004;28;20087;-69
2021/11/17 03:51:16;;;;;;;4.57;2.90;;;21.00;53.20;;;;;;6218213;28;20468;-69
2021/11/17 03:54:28;;;;;;;4.78;3.80;;;21.00;53.20;;;;;;6232872;28;20046;-69
2021/11/17 03:57:35;;;;;;;4.55;3.40;;;21.00;53.20;;;;;;6233942;28;20026;-70
2021/11/17 04:00:51;;;;;;;4.43;3.30;;;21.00;53.20;;;;;;6218046;28;20030;-69
2021/11/17 04:03:58;;;;;;;4.25;3.10;;;21.00;53.30;;;;;;6199195;28;20077;-69
2021/11/17 04:07:20;;;;;;;3.28;2.83;;;21.00;53.20;;;;;;6194384;28;20018;-69
2021/11/17 04:10:20;;;;;;;4.47;3.30;;;21.00;53.20;;;;;;6168969;28;20038;-69
2021/11/17 04:13:49;;;;;;;4.00;3.10;;;21.00;53.20;;;;;;6177491;28;20390;-69
2021/11/17 04:17:08;;;;;;;4.07;3.00;;;21.00;53.20;;;;;;6194043;28;20051;-70
2021/11/17 04:20:28;;;;;;;3.65;2.85;;;21.00;53.20;;;;;;6213943;28;20067;-70
2021/11/17 04:23:51;;;;;;;4.43;2.88;;;21.00;53.20;;;;;;6217268;28;20022;-69
2021/11/17 04:27:00;;;;;;;4.05;3.05;;;21.00;53.20;;;;;;6207079;28;20450;-69
2021/11/17 04:30:18;;;;;;;4.30;3.17;;;21.00;53.30;;;;;;6205239;28;20157;-69
2021/11/17 04:33:53;;;;;;;4.30;3.00;;;21.00;53.20;;;;;;6207302;28;20077;-69
2021/11/17 04:37:12;;;;;;;3.28;2.70;;;21.00;53.30;;;;;;6213556;28;20037;-69
2021/11/17 04:40:27;;;;;;;2.83;2.45;;;21.00;53.20;;;;;;6216887;28;20412;-70
2021/11/17 04:44:06;;;;;;;3.10;2.63;;;21.00;53.20;;;;;;6232745;28;20387;-69
2021/11/17 04:47:19;;;;;;;3.20;2.63;;;21.00;53.10;;;;;;6217380;28;20070;-69
2021/11/17 04:50:42;;;;;;;3.72;2.67;;;21.00;53.10;;;;;;6216669;28;20040;-70
2021/11/17 04:53:48;;;;;;;3.22;2.72;;;21.00;53.10;;;;;;6233388;28;20107;-69
2021/11/17 04:57:05;;;;;;;3.50;2.80;;;21.00;53.10;;;;;;6217454;28;20040;-69
2021/11/17 05:00:21;;;;;;;3.70;2.60;;;21.00;53.20;;;;;;6216027;28;20084;-69
2021/11/17 05:03:40;;;;;;;3.28;2.70;;;21.00;53.10;;;;;;6217840;28;20114;-69
2021/11/17 05:06:58;;;;;;;2.95;2.47;;;21.00;53.20;;;;;;6216347;28;20115;-69
2021/11/17 05:10:11;;;;;;;3.10;2.40;;;21.00;53.10;;;;;;6168490;28;20051;-69
2021/11/17 05:13:26;;;;;;;3.58;2.67;;;21.00;53.10;;;;;;6184951;28;20101;-69
2021/11/17 05:16:36;;;;;;;3.10;2.60;;;21.00;53.20;;;;;;6190242;28;20026;-69
2021/11/17 05:19:57;;;;;;;3.45;2.42;;;21.00;53.10;;;;;;6214183;28;20030;-69
2021/11/17 05:23:35;;;;;;;3.80;2.78;;;21.00;53.10;;;;;;6230619;28;20022;-69
2021/11/17 05:26:58;;;;;;;3.65;2.60;;;21.00;53.10;;;;;;6215344;28;20491;-69
2021/11/17 05:30:07;;;;;;;3.13;2.63;;;21.00;53.10;;;;;;6209731;28;20029;-69
2021/11/17 05:33:17;;;;;;;3.88;2.70;;;21.00;53.10;;;;;;6190303;28;20353;-69
2021/11/17 05:36:41;;;;;;;3.10;2.60;;;21.00;53.10;;;;;;6192702;28;20026;-69
2021/11/17 05:40:11;;;;;;;3.63;2.55;;;21.00;53.10;;;;;;6216600;28;20093;-69
2021/11/17 05:43:35;;;;;;;2.40;2.20;;;21.00;53.10;;;;;;6184372;28;20107;-69
2021/11/17 05:46:41;;;;;;;2.92;2.42;;;21.00;53.10;;;;;;6149015;28;20036;-69
2021/11/17 05:50:00;;;;;;;3.22;2.20;;;21.00;53.10;;;;;;6214493;28;20053;-69
2021/11/17 05:53:31;;;;;;;2.58;2.17;;;21.00;53.10;;;;;;6206128;28;20315;-69
2021/11/17 05:56:45;;;;;;;2.88;2.30;;;21.00;53.10;;;;;;6205096;28;20018;-69
2021/11/17 06:00:23;;;;;;;3.10;2.13;;;21.00;53.10;;;;;;6213420;28;20033;-69
2021/11/17 06:03:35;;;;;;;2.63;2.03;;;21.00;53.10;;;;;;6220229;28;20022;-69
2021/11/17 06:06:39;;;;;;;2.83;2.10;;;21.00;53.10;;;;;;6231819;28;20018;-69
2021/11/17 06:09:39;;;;;;;3.38;2.40;;;21.00;53.10;;;;;;6215100;28;20308;-69
2021/11/17 06:12:41;;;;;;;2.97;2.40;;;21.00;53.10;;;;;;6207890;28;20035;-70
2021/11/17 06:15:43;;;;;;;2.72;2.25;;;21.00;53.10;;;;;;6192223;28;20037;-69
2021/11/17 06:18:44;;;;;;;3.08;2.38;;;21.00;53.10;;;;;;6206635;28;20434;-69
2021/11/17 06:21:46;;;;;;;3.22;2.47;;;21.00;53.10;;;;;;6216192;28;20240;-70
2021/11/17 06:24:49;;;;;;;2.90;2.20;;;21.00;53.10;;;;;;6195678;28;20023;-70
2021/11/17 06:27:54;;;;;;;2.63;2.08;;;21.00;53.10;;;;;;6214686;28;20523;-69
2021/11/17 06:30:57;;;;;;;3.00;2.30;;;21.00;53.00;;;;;;6203121;28;20058;-69
2021/11/17 06:33:59;;;;;;;2.63;1.98;;;21.00;53.00;;;;;;6213695;28;20065;-69
2021/11/17 06:37:02;;;;;;;2.30;1.90;;;21.00;53.00;;;;;;6207696;28;20093;-69
2021/11/17 06:40:08;;;;;;;2.40;2.20;;;21.00;53.00;;;;;;6191886;28;20023;-69
2021/11/17 06:43:09;;;;;;;3.38;2.40;;;21.00;53.00;;;;;;6222133;28;20107;-70
2021/11/17 06:46:10;;;;;;;2.80;2.20;;;21.10;53.00;;;;;;6216772;28;20057;-69
2021/11/17 06:49:10;;;;;;;2.10;1.90;;;21.00;52.90;;;;;;6212682;28;20030;-70
2021/11/17 06:52:11;;;;;;;2.80;2.13;;;21.00;53.00;;;;;;6205124;28;20033;-69
2021/11/17 06:55:12;;;;;;;2.13;1.80;;;21.10;53.00;;;;;;6220644;28;20488;-69
2021/11/17 06:58:13;;;;;;;2.45;1.92;;;21.10;53.00;;;;;;6218948;28;20121;-70
2021/11/17 07:01:14;;;;;;;2.47;1.90;;;21.10;53.00;;;;;;6197286;28;20472;-70
2021/11/17 07:04:15;;;;;;;2.92;2.10;;;21.10;53.10;;;;;;6211830;28;20037;-70
2021/11/17 07:07:16;;;;;;;2.78;2.17;;;21.10;53.10;;;;;;6198956;28;20033;-70
2021/11/17 07:10:17;;;;;;;2.33;1.90;;;21.10;53.10;;;;;;6198956;28;20023;-70
2021/11/17 07:13:18;;;;;;;2.13;1.75;;;21.10;53.10;;;;;;6200488;28;20054;-70
2021/11/17 07:16:19;;;;;;;2.53;1.70;;;21.10;53.10;;;;;;6197424;28;20037;-70
2021/11/17 07:19:24;;;;;;;2.17;1.67;;;21.10;53.10;;;;;;6214946;28;20582;-70
2021/11/17 07:22:25;;;;;;;2.30;1.85;;;21.10;53.10;;;;;;6222974;28;20029;-70
2021/11/17 07:25:26;;;;;;;2.05;1.85;;;21.10;53.10;;;;;;6222669;28;20053;-70
2021/11/17 07:28:26;;;;;;;2.08;1.88;;;21.10;53.10;;;;;;6220610;28;20026;-70
2021/11/17 07:31:27;;;;;;;2.55;1.85;;;21.10;53.10;;;;;;6203151;28;20477;-71
2021/11/17 07:34:28;;;;;;;2.53;1.92;;;21.10;53.10;;;;;;6220993;28;20030;-70
2021/11/17 07:37:28;;;;;;;2.05;1.80;;;21.10;53.20;;;;;;6221229;28;20104;-70
2021/11/17 07:40:30;;;;;;;1.60;1.50;;;21.10;53.90;;;;;;6222517;28;20088;-70
2021/11/17 07:43:32;;;;;;;2.28;1.75;;;21.10;53.10;;;;;;6218751;28;20025;-70
2021/11/17 07:46:32;;;;;;;2.33;1.85;;;21.10;53.10;;;;;;6199778;28;20491;-70
2021/11/17 07:49:33;;;;;;;2.22;1.75;;;21.10;53.20;;;;;;6222168;28;20030;-70
2021/11/17 07:52:35;;;;;;;2.40;1.88;;;21.10;53.20;;;;;;6222831;28;20025;-70
2021/11/17 07:55:41;;;;;;;2.63;1.83;;;21.10;53.10;;;;;;6237228;28;20079;-70
2021/11/17 07:58:45;;;;;;;2.50;1.70;;;21.10;53.20;;;;;;6236445;28;20506;-70
2021/11/17 08:01:49;;;;;;;1.67;1.58;;;21.10;53.10;;;;;;6220385;28;20022;-70
2021/11/17 08:04:49;;;;;;;2.45;1.80;;;21.10;53.10;;;;;;6222360;28;20451;-70
2021/11/17 08:07:51;;;;;;;2.05;1.65;;;21.10;53.20;;;;;;6222377;28;20132;-70
2021/11/17 08:10:52;;;;;;;1.83;1.50;;;21.10;53.10;;;;;;6222187;28;20543;-70
2021/11/17 08:13:52;;;;;;;1.88;1.67;;;21.10;53.10;;;;;;6236872;28;20049;-70
2021/11/17 08:16:53;;;;;;;1.85;1.45;;;21.10;53.10;;;;;;6222393;28;20079;-70
2021/11/17 08:19:53;;;;;;;2.00;1.70;;;21.10;53.10;;;;;;6221382;28;20025;-70
2021/11/17 08:22:58;;;;;;;2.20;1.70;;;21.10;53.10;;;;;;6219947;28;20454;-70
2021/11/17 08:25:59;;;;;;;2.73;1.97;;;21.10;53.20;;;;;;6208330;28;20025;-70
2021/11/17 08:29:00;;;;;;;2.40;1.42;;;21.10;53.10;;;;;;6221202;28;20265;-70
2021/11/17 08:32:00;;;;;;;1.95;1.58;;;21.10;53.10;;;;;;6193797;28;20025;-70
2021/11/17 08:35:02;;;;;;;2.13;1.90;;;21.10;53.10;;;;;;6219813;28;20445;-70
2021/11/17 08:38:05;;;;;;;1.70;1.33;;;21.10;53.10;;;;;;6205286;28;20102;-70
2021/11/17 08:41:09;;;;;;;1.65;1.42;;;21.10;53.10;;;;;;6195709;28;20462;-70
2021/11/17 08:44:09;;;;;;;1.80;1.55;;;21.10;53.10;;;;;;6219260;28;20384;-70
2021/11/17 08:47:14;;;;;;;1.60;1.45;;;21.10;53.10;;;;;;6219944;28;20033;-70
2021/11/17 08:50:17;;;;;;;2.37;1.80;;;21.10;53.20;;;;;;6221052;28;20030;-70
2021/11/17 08:53:19;;;;;;;1.63;1.50;;;21.10;53.10;;;;;;6219294;28;20037;-70
2021/11/17 08:56:20;;;;;;;2.03;1.60;;;21.10;53.10;;;;;;6220972;28;20026;-70
2021/11/17 08:59:21;;;;;;;1.70;1.48;;;21.10;53.40;;;;;;6220534;28;20026;-70
2021/11/17 09:02:22;;;;;;;1.83;1.33;;;21.10;53.10;;;;;;6220628;28;20383;-70
2021/11/17 09:05:27;;;;;;;1.85;1.38;;;21.10;53.10;;;;;;6219297;28;20371;-70
2021/11/17 09:08:28;;;;;;;2.38;1.80;;;21.10;53.10;;;;;;6219802;28;20053;-70
2021/11/17 09:11:29;;;;;;;1.90;1.50;;;21.10;53.10;;;;;;6219248;28;20120;-70
2021/11/17 09:14:30;;;;;;;2.28;1.80;;;21.10;53.10;;;;;;6216139;28;20093;-70
2021/11/17 09:17:31;;;;;;;1.98;1.58;;;21.10;53.10;;;;;;6195928;28;20030;-70
2021/11/17 09:20:33;;;;;;;1.85;1.25;;;21.10;53.10;;;;;;6211072;28;20027;-70
2021/11/17 09:23:33;;;;;;;1.63;1.40;;;21.10;53.10;;;;;;6205945;28;20056;-70
2021/11/17 09:26:36;;;;;;;2.00;1.65;;;21.10;53.10;;;;;;6235310;28;20540;-70
2021/11/17 09:29:36;;;;;;;1.95;1.70;;;21.10;53.10;;;;;;6216178;28;20033;-70
2021/11/17 09:32:38;;;;;;;2.20;1.50;;;21.10;53.00;;;;;;6194151;28;20030;-70
2021/11/17 09:35:39;;;;;;;2.00;1.58;;;21.10;53.00;;;;;;6194466;28;20495;-70
2021/11/17 09:38:40;;;;;;;2.00;1.58;;;21.10;53.00;;;;;;6195114;28;20065;-69
2021/11/17 09:41:47;;;;;;;1.80;1.50;;;21.10;53.00;;;;;;6195573;28;20029;-70
2021/11/17 09:44:47;;;;;;;1.73;1.42;;;21.10;53.00;;;;;;6195211;28;20077;-70
2021/11/17 09:47:49;;;;;;;2.80;1.67;;;21.10;53.00;;;;;;6206728;28;20076;-70
2021/11/17 09:51:10;;;;;;;1.67;1.50;;;21.10;53.00;;;;;;6218141;28;20036;-70
2021/11/17 09:54:24;;;;;;;1.73;1.50;;;21.10;53.00;;;;;;6234472;28;20029;-70
2021/11/17 09:57:30;;;;;;;1.35;1.25;;;21.10;53.00;;;;;;6217779;28;20042;-70
2021/11/17 10:00:43;;;;;;;1.67;1.30;;;21.10;53.00;;;;;;6218132;28;20026;-70
2021/11/17 10:03:53;;;;;;;1.55;1.40;;;21.10;53.00;;;;;;6217622;28;20018;-70
2021/11/17 10:14:13;;;;;;;1.63;1.30;;;21.10;53.00;;;;;;6204974;28;20101;-70
2021/11/17 10:17:30;;;;;;;1.20;1.10;;;21.10;53.00;;;;;;6194517;28;20435;-70
2021/11/17 10:20:38;;;;;;;1.77;1.58;;;21.10;53.00;;;;;;6224756;28;20030;-70
2021/11/17 10:23:57;;;;;;;1.65;1.35;;;21.10;53.00;;;;;;6214760;28;20053;-70
2021/11/17 10:27:02;;;;;;;1.48;1.33;;;21.10;53.00;;;;;;6216629;28;20022;-70
2021/11/17 10:30:10;;;;;;;1.80;1.40;;;21.10;52.90;;;;;;6220946;28;20096;-70
2021/11/17 10:33:17;;;;;;;1.95;1.33;;;21.10;53.00;;;;;;6219631;28;20504;-70
2021/11/17 10:36:20;;;;;;;1.65;1.30;;;21.10;53.00;;;;;;6208763;28;20031;-70
2021/11/17 10:39:29;;;;;;;1.55;1.30;;;21.10;53.00;;;;;;6225564;28;20487;-70
2021/11/17 10:42:37;;;;;;;1.67;1.35;;;21.10;53.00;;;;;;6225491;28;20129;-70
2021/11/17 10:45:45;;;;;;;1.38;1.20;;;21.10;53.00;;;;;;6226820;28;20021;-70
2021/11/17 10:49:08;;;;;;;1.40;1.20;;;21.10;53.00;;;;;;6206372;28;20033;-70
2021/11/17 10:52:11;;;;;;;1.40;1.13;;;21.10;53.00;;;;;;6205164;28;20531;-70
2021/11/17 10:55:17;;;;;;;1.83;1.30;;;21.10;53.00;;;;;;6201696;28;20022;-70
2021/11/17 10:58:24;;;;;;;1.42;1.23;;;21.10;53.00;;;;;;6201079;28;20058;-70
2021/11/17 11:01:32;;;;;;;1.73;1.20;;;21.10;53.00;;;;;;6202383;28;20023;-70
2021/11/17 11:04:56;;;;;;;1.63;1.30;;;21.10;53.00;;;;;;6226010;28;20029;-70
2021/11/17 11:08:11;;;;;;;1.67;1.30;;;21.10;53.00;;;;;;6218265;28;20030;-70
2021/11/17 11:11:12;;;;;;;1.45;1.30;;;21.10;53.00;;;;;;6202393;28;20023;-70
2021/11/17 11:14:18;;;;;;;1.30;1.20;;;21.10;53.00;;;;;;6203346;28;20046;-70
2021/11/17 11:17:25;;;;;;;1.30;1.08;;;21.20;53.10;;;;;;6200564;28;20117;-70
2021/11/17 11:20:26;;;;;;;1.30;1.20;;;21.10;53.00;;;;;;6200882;28;20030;-70
2021/11/17 11:23:26;;;;;;;1.65;1.30;;;21.10;53.00;;;;;;6201175;28;20543;-70
2021/11/17 11:26:27;;;;;;;1.45;1.20;;;21.10;53.00;;;;;;6211585;28;20049;-70
2021/11/17 11:29:34;;;;;;;1.50;1.35;;;21.10;53.00;;;;;;6202025;28;20101;-70
2021/11/17 11:32:34;;;;;;;2.20;1.30;;;21.10;53.00;;;;;;6210381;28;20022;-70
2021/11/17 11:35:35;;;;;;;1.10;1.00;;;21.10;53.00;;;;;;6221344;28;20117;-70
2021/11/17 11:38:44;;;;;;;1.92;1.15;;;21.10;53.00;;;;;;6222396;28;20088;-70
2021/11/17 11:42:15;;;;;;;1.77;1.30;;;21.10;53.00;;;;;;6222573;28;20029;-70
2021/11/17 11:45:25;;;;;;;1.80;1.45;;;21.10;53.00;;;;;;6221345;28;20080;-70
2021/11/17 11:48:25;;;;;;;1.55;1.38;;;21.10;53.00;;;;;;6222496;28;20083;-70
2021/11/17 11:51:32;;;;;;;1.20;1.10;;;21.10;53.00;;;;;;6222678;28;20487;-70
2021/11/17 11:54:56;;;;;;;1.58;1.30;;;21.10;53.00;;;;;;6220877;28;20018;-70
2021/11/17 11:58:18;;;;;;;1.60;1.17;;;21.10;53.00;;;;;;6220141;28;20468;-70
2021/11/17 12:01:24;;;;;;;1.38;1.10;;;21.10;53.00;;;;;;6222760;28;20026;-70
2021/11/17 12:04:24;;;;;;;1.10;1.00;;;21.10;52.90;;;;;;6199838;28;20105;-70
2021/11/17 12:07:47;;;;;;;1.10;1.00;;;21.10;52.90;;;;;;6200495;28;20034;-70
2021/11/17 12:11:15;;;;;;;1.67;1.30;;;21.10;52.90;;;;;;6220955;28;20410;-70
2021/11/17 12:14:31;;;;;;;1.55;1.20;;;21.10;52.90;;;;;;6200979;28;20165;-70
2021/11/17 12:17:31;;;;;;;1.40;1.10;;;21.10;53.00;;;;;;6199558;28;20078;-70
2021/11/17 12:20:38;;;;;;;1.55;1.20;;;21.10;53.00;;;;;;6221918;28;20087;-70
2021/11/17 12:23:43;;;;;;;1.48;1.27;;;21.10;53.00;;;;;;6220300;28;20212;-70
2021/11/17 12:26:46;;;;;;;1.48;1.30;;;21.10;53.00;;;;;;6221289;28;20018;-70
2021/11/17 12:30:09;;;;;;;1.25;1.13;;;21.10;52.90;;;;;;6213303;28;20027;-70
2021/11/17 12:33:20;;;;;;;1.40;1.10;;;21.10;52.90;;;;;;6207025;28;20030;-70
2021/11/17 12:36:56;;;;;;;1.30;1.10;;;21.10;52.90;;;;;;6218333;28;20026;-70
2021/11/17 12:39:59;;;;;;;;;;;21.10;52.90;;;;;;6197384;28;20485;-70
2021/11/17 12:43:04;;;;;;;1.00;0.90;;;21.10;52.90;;;;;;6195516;28;19996;-70
2021/11/17 12:46:26;;;;;;;1.27;1.10;;;21.10;53.00;;;;;;6195478;28;20050;-70
2021/11/17 12:49:52;;;;;;;1.65;1.20;;;21.10;52.90;;;;;;6171314;28;20034;-70
2021/11/17 12:52:56;;;;;;;1.00;0.90;;;21.10;52.90;;;;;;6193419;28;20025;-70
2021/11/17 12:56:03;;;;;;;1.48;1.27;;;21.10;52.90;;;;;;6221210;28;20049;-70
2021/11/17 12:59:16;;;;;;;1.30;1.10;;;21.10;52.90;;;;;;6220402;28;20083;-70
2021/11/17 13:02:23;;;;;;;1.20;1.00;;;21.10;52.90;;;;;;6219118;28;20501;-70
2021/11/17 13:05:39;;;;;;;1.20;0.90;;;21.10;52.90;;;;;;6220327;28;20537;-70
2021/11/17 13:08:39;;;;;;;1.73;1.13;;;21.10;52.90;;;;;;6219085;28;20064;-70
2021/11/17 13:11:49;;;;;;;1.60;0.95;;;21.10;52.90;;;;;;6220458;28;20033;-70
2021/11/17 13:14:52;;;;;;;1.42;1.23;;;21.10;52.90;;;;;;6195126;28;20035;-70
2021/11/17 13:17:52;;;;;;;1.38;1.00;;;21.10;52.90;;;;;;6195505;28;20117;-70
2021/11/17 13:21:11;;;;;;;2.13;1.20;;;21.10;52.90;;;;;;6196036;28;20032;-70
2021/11/17 13:24:20;;;;;;;1.58;1.20;;;21.10;52.90;;;;;;6213250;28;20052;-70
2021/11/17 13:27:34;;;;;;;1.48;1.20;;;21.10;52.90;;;;;;6208888;28;20037;-70
2021/11/17 13:30:48;;;;;;;1.30;1.20;;;21.10;53.00;;;;;;6200158;28;20096;-70
2021/11/17 13:34:09;;;;;;;1.23;1.00;;;21.10;52.90;;;;;;6216281;28;20029;-70
2021/11/17 13:37:34;;;;;;;1.08;0.95;;;21.20;53.00;;;;;;6211894;28;20022;-70
2021/11/17 13:40:35;;;;;;;1.37;1.10;;;21.10;52.90;;;;;;6211144;28;20515;-70
2021/11/17 13:43:38;;;;;;;1.10;0.90;;;21.10;52.90;;;;;;6212822;28;20273;-70
2021/11/17 13:46:51;;;;;;;1.98;1.17;;;21.10;52.90;;;;;;6219976;28;20022;-70
2021/11/17 13:49:55;;;;;;;1.70;1.00;;;21.10;52.90;;;;;;6218183;28;20025;-70
2021/11/17 13:52:57;;;;;;;2.55;1.27;;;21.10;52.90;;;;;;6206218;28;20034;-70
2021/11/17 13:56:12;;;;;;;1.23;1.10;;;21.10;52.90;;;;;;6210113;28;20029;-70
2021/11/17 13:59:13;;;;;;;1.25;0.90;;;21.20;53.00;;;;;;6208900;28;20026;-70
2021/11/17 14:02:15;;;;;;;1.55;1.13;;;21.10;52.90;;;;;;6195289;28;20112;-70
2021/11/17 14:05:18;;;;;;;1.17;1.00;;;21.20;53.00;;;;;;6195104;28;20066;-70
2021/11/17 14:08:20;;;;;;;2.25;1.15;;;21.20;53.00;;;;;;6207513;28;20025;-70
2021/11/17 14:11:20;;;;;;;2.22;1.00;;;21.10;52.90;;;;;;6219286;28;20030;-70
2021/11/17 14:14:21;;;;;;;1.10;1.00;;;21.20;53.00;;;;;;6199558;28;20062;-70
2021/11/17 14:17:22;;;;;;;1.40;1.20;;;21.10;52.90;;;;;;6197327;28;20035;-71
2021/11/17 14:20:23;;;;;;;1.08;0.90;;;21.20;53.00;;;;;;6234113;28;20140;-70
2021/11/17 14:23:24;;;;;;;1.00;0.90;;;21.10;52.90;;;;;;6212012;28;20030;-70
2021/11/17 14:26:25;;;;;;;1.00;0.90;;;21.20;53.00;;;;;;6217771;28;20137;-70
2021/11/17 14:29:33;;;;;;;1.73;1.00;;;21.10;52.90;;;;;;6217649;28;20365;-70
2021/11/17 14:32:37;;;;;;;1.55;1.10;;;21.10;52.90;;;;;;6205585;28;20399;-70
2021/11/17 14:35:38;;;;;;;1.10;1.00;;;21.20;53.00;;;;;;6219611;28;20026;-70
2021/11/17 14:38:40;;;;;;;1.05;0.90;;;21.20;53.00;;;;;;6219067;28;20026;-70
2021/11/17 14:41:42;;;;;;;1.13;1.00;;;21.20;53.00;;;;;;6215821;28;20395;-70
2021/11/17 14:44:43;;;;;;;1.25;1.00;;;21.20;53.00;;;;;;6194906;28;20198;-70
2021/11/17 14:47:44;;;;;;;1.08;0.98;;;21.20;53.00;;;;;;6205945;28;20549;-70
2021/11/17 14:50:49;;;;;;;1.25;0.88;;;21.10;52.90;;;;;;6219029;28;20026;-70
2021/11/17 14:53:52;;;;;;;1.10;0.88;;;21.10;52.90;;;;;;6218793;28;20072;-70
2021/11/17 14:56:52;;;;;;;1.20;1.00;;;21.20;53.00;;;;;;6215925;28;20036;-70
2021/11/17 14:59:53;;;;;;;1.80;1.10;;;21.20;53.10;;;;;;6194352;28;20038;-70
2021/11/17 15:02:55;;;;;;;1.05;0.90;;;21.20;53.00;;;;;;6202660;28;20022;-70
2021/11/17 15:05:55;;;;;;;1.20;0.82;;;21.20;53.00;;;;;;6219004;28;20554;-70
2021/11/17 15:08:57;;;;;;;1.95;0.93;;;21.20;53.00;;;;;;6206084;28;20088;-70
2021/11/17 15:12:16;;;;;;;0.95;0.80;;;21.20;53.00;;;;;;6198823;28;20030;-70
2021/11/17 15:15:23;;;;;;;0.95;0.88;;;21.20;53.00;;;;;;6200423;28;20058;-70
2021/11/17 15:18:26;;;;;;;1.15;0.90;;;21.20;53.10;;;;;;6205824;28;20022;-72
2021/11/17 15:21:26;;;;;;;1.05;0.95;;;21.20;53.00;;;;;;6222564;28;20022;-72
2021/11/17 15:24:29;;;;;;;2.00;1.10;;;21.20;53.00;;;;;;6221280;28;20507;-72
2021/11/17 15:27:42;;;;;;;1.20;0.82;;;21.20;53.00;;;;;;6222326;28;20084;-72
2021/11/17 15:30:50;;;;;;;1.10;1.00;;;21.20;53.00;;;;;;6211970;28;20037;-70
2021/11/17 15:33:51;;;;;;;1.15;1.05;;;21.20;53.00;;;;;;6221066;28;20022;-71
2021/11/17 15:36:52;;;;;;;1.02;0.95;;;21.20;53.10;;;;;;6223642;28;20030;-70
2021/11/17 15:39:52;;;;;;;1.40;0.90;;;21.20;53.10;;;;;;6221891;28;20022;-70
2021/11/17 15:42:53;;;;;;;0.93;0.75;;;21.20;53.10;;;;;;6214547;28;20030;-70
2021/11/17 15:45:55;;;;;;;0.82;0.82;;;21.20;53.00;;;;;;6221381;28;20026;-70
2021/11/17 15:48:55;;;;;;;1.23;0.90;;;21.20;53.00;;;;;;6222567;28;20060;-70
2021/11/17 15:51:58;;;;;;;0.80;0.80;;;21.20;53.10;;;;;;6222097;28;20056;-70
2021/11/17 15:54:58;;;;;;;1.27;1.10;;;21.20;53.00;;;;;;6238019;28;20030;-70
2021/11/17 15:58:00;;;;;;;1.08;0.98;;;21.20;53.00;;;;;;6222307;28;20037;-70
2021/11/17 16:01:01;;;;;;;0.90;0.90;;;21.20;53.00;;;;;;6221231;28;20073;-70
2021/11/17 16:04:01;;;;;;;0.93;0.75;;;21.20;53.00;;;;;;6237280;28;20068;-70
2021/11/17 16:07:10;;;;;;;1.17;0.82;;;21.20;53.10;;;;;;6220712;28;20053;-70
2021/11/17 16:10:13;;;;;;;1.08;0.93;;;21.20;53.00;;;;;;6221581;28;20844;-70
2021/11/17 16:13:14;;;;;;;1.00;0.90;;;21.20;53.10;;;;;;6216114;28;20046;-70
2021/11/17 16:16:15;;;;;;;0.80;0.80;;;21.20;53.00;;;;;;6196514;28;20022;-70
2021/11/17 16:19:16;;;;;;;1.60;0.95;;;21.20;53.00;;;;;;6212798;28;20026;-69
2021/11/17 16:22:27;;;;;;;1.08;0.85;;;21.20;53.00;;;;;;6221836;28;20030;-70
2021/11/17 16:25:35;;;;;;;1.02;0.93;;;21.20;53.00;;;;;;6187200;28;20399;-70
2021/11/17 16:28:39;;;;;;;1.13;0.90;;;21.20;53.10;;;;;;6221582;28;20041;-70
2021/11/17 16:31:41;;;;;;;1.00;0.90;;;21.20;53.00;;;;;;6192063;28;20445;-70
2021/11/17 16:34:41;;;;;;;0.80;0.80;;;21.20;53.00;;;;;;6221725;28;20033;-70
2021/11/17 16:37:42;;;;;;;0.82;0.80;;;21.20;53.10;;;;;;6221275;28;20105;-70
2021/11/17 16:40:45;;;;;;;0.88;0.80;;;21.20;53.00;;;;;;6221678;28;20032;-70
2021/11/17 16:43:49;;;;;;;1.17;1.00;;;21.20;53.00;;;;;;6220879;28;20061;-70
2021/11/17 16:46:51;;;;;;;1.42;0.98;;;21.20;53.00;;;;;;6217478;28;20069;-70
2021/11/17 16:49:53;;;;;;;0.80;0.80;;;21.20;53.00;;;;;;6196971;28;20606;-70
2021/11/17 16:52:55;;;;;;;0.80;0.80;;;21.20;53.00;;;;;;6207065;28;20026;-70
2021/11/17 16:55:56;;;;;;;1.23;0.90;;;21.20;53.00;;;;;;6219362;28;20045;-70
2021/11/17 16:58:56;;;;;;;0.85;0.70;;;21.20;53.00;;;;;;6220559;28;20364;-70
2021/11/17 17:01:57;;;;;;;0.98;0.70;;;21.20;53.20;;;;;;6220670;28;20084;-70
2021/11/17 17:04:57;;;;;;;1.05;0.70;;;21.20;53.00;;;;;;6220798;28;20432;-70
2021/11/17 17:07:59;;;;;;;1.23;1.00;;;21.20;53.00;;;;;;6219023;28;20536;-70
2021/11/17 17:11:04;;;;;;;1.00;0.70;;;21.20;53.00;;;;;;6218775;28;20459;-70
2021/11/17 17:14:05;;;;;;;0.68;0.60;;;21.20;53.00;;;;;;6205945;28;20050;-69
2021/11/17 17:17:05;;;;;;;0.77;0.75;;;21.20;53.00;;;;;;6192877;28;20491;-69
2021/11/17 17:20:09;;;;;;;2.95;0.70;;;21.20;53.00;;;;;;6193015;28;20033;-69
2021/11/17 17:23:11;;;;;;;1.38;0.90;;;21.20;53.00;;;;;;6201887;28;20084;-69
2021/11/17 17:26:15;;;;;;;0.90;0.80;;;21.20;53.00;;;;;;6217119;28;20104;-69
2021/11/17 17:29:16;;;;;;;1.05;0.70;;;21.20;53.00;;;;;;6216302;28;20112;-69
2021/11/17 17:32:17;;;;;;;1.40;0.85;;;21.20;53.00;;;;;;6202719;28;20088;-70
2021/11/17 17:35:18;;;;;;;1.02;0.82;;;21.20;53.10;;;;;;6232293;28;20502;-69
2021/11/17 17:38:20;;;;;;;1.23;1.05;;;21.20;53.00;;;;;;6215069;28;20057;-69
2021/11/17 17:41:22;;;;;;;0.73;0.73;;;21.20;53.10;;;;;;6216357;28;20072;-70
2021/11/17 17:44:23;;;;;;;1.42;0.90;;;21.20;53.10;;;;;;6191680;28;20027;-69
2021/11/17 17:47:27;;;;;;;1.00;0.90;;;21.20;53.10;;;;;;6200539;28;20494;-70
2021/11/17 17:50:32;;;;;;;0.95;0.80;;;21.20;53.10;;;;;;6215473;28;20157;-69
2021/11/17 17:53:34;;;;;;;0.87;0.60;;;21.20;53.00;;;;;;6198496;28;20503;-69
2021/11/17 17:56:34;;;;;;;1.15;1.00;;;21.20;53.10;;;;;;6192479;28;20268;-69
2021/11/17 17:59:38;;;;;;;0.82;0.80;;;21.20;53.00;;;;;;6214695;28;20034;-69
2021/11/17 18:02:39;;;;;;;1.33;0.98;;;21.20;53.10;;;;;;6192037;28;20456;-69
2021/11/17 18:05:40;;;;;;;0.80;0.70;;;21.20;53.10;;;;;;6175369;28;20081;-69
2021/11/17 18:08:41;;;;;;;0.70;0.60;;;21.20;53.00;;;;;;6208006;28;20037;-69
2021/11/17 18:11:42;;;;;;;0.75;0.68;;;21.20;53.10;;;;;;6198314;28;20027;-69
2021/11/17 18:14:43;;;;;;;0.80;0.70;;;21.20;53.10;;;;;;6197158;28;20571;-69
2021/11/17 18:17:43;;;;;;;1.52;0.80;;;21.20;53.10;;;;;;6196961;28;20129;-69
2021/11/17 18:20:44;;;;;;;1.23;1.00;;;21.20;53.10;;;;;;6215793;28;20026;-69
2021/11/17 18:23:45;;;;;;;0.90;0.82;;;21.20;53.10;;;;;;6202459;28;20018;-70
2021/11/17 18:26:54;;;;;;;1.90;0.90;;;21.20;53.10;;;;;;6199327;28;20091;-69
2021/11/17 18:29:54;;;;;;;1.05;0.95;;;21.20;53.10;;;;;;6211531;28;20030;-69
2021/11/17 18:32:57;;;;;;;1.10;0.85;;;21.20;53.10;;;;;;6206980;28;20030;-69
2021/11/17 18:35:58;;;;;;;0.98;0.80;;;21.20;53.10;;;;;;6214825;28;20498;-70
2021/11/17 18:38:59;;;;;;;1.02;0.90;;;21.20;53.10;;;;;;6191448;28;20037;-69
2021/11/17 18:42:10;;;;;;;1.23;0.90;;;21.20;53.20;;;;;;6194109;28;20026;-70
2021/11/17 18:45:18;;;;;;;0.93;0.80;;;21.20;53.20;;;;;;6195453;28;20034;-69
2021/11/17 18:48:20;;;;;;;0.90;0.75;;;21.20;53.20;;;;;;6211030;28;20142;-69